sensor_id;sensor_type;location;lat;lon;timestamp;temperature;humidity
16174;DHT22;14031;50.158;8.626;2022-08-19T00:01:31;22.80;99.90
16174;DHT22;14031;50.158;8.626;2022-08-19T00:04:00;22.80;99.90
16174;DHT22;14031;50.158;8.626;2022-08-19T00:06:28;22.70;99.90
16174;DHT22;14031;50.158;8.626;2022-08-19T00:08:56;22.80;99.90
16174;DHT22;14031;50.158;8.626;2022-08-19T00:11:27;22.70;99.90
16174;DHT22;14031;50.158;8.626;2022-08-19T00:13:54;22.80;99.90
16174;DHT22;14031;50.158;8.626;2022-08-19T00:16:22;22.70;99.90
16174;DHT22;14031;50.158;8.626;2022-08-19T00:18:49;22.80;99.90
16174;DHT22;14031;50.158;8.626;2022-08-19T00:21:16;22.70;99.90
16174;DHT22;14031;50.158;8.626;2022-08-19T00:23:43;22.70;99.90
16174;DHT22;14031;50.158;8.626;2022-08-19T00:26:11;22.70;99.90
16174;DHT22;14031;50.158;8.626;2022-08-19T00:28:39;22.80;99.90
16174;DHT22;14031;50.158;8.626;2022-08-19T00:31:08;22.70;99.90
16174;DHT22;14031;50.158;8.626;2022-08-19T00:33:35;22.70;99.90
16174;DHT22;14031;50.158;8.626;2022-08-19T00:36:05;22.70;99.90
16174;DHT22;14031;50.158;8.626;2022-08-19T00:38:32;22.70;99.90
16174;DHT22;14031;50.158;8.626;2022-08-19T00:40:59;22.70;99.90
16174;DHT22;14031;50.158;8.626;2022-08-19T00:43:28;22.60;99.90
16174;DHT22;14031;50.158;8.626;2022-08-19T00:45:56;22.70;99.90
16174;DHT22;14031;50.158;8.626;2022-08-19T00:48:23;22.60;99.90
16174;DHT22;14031;50.158;8.626;2022-08-19T00:50:51;22.60;99.90
16174;DHT22;14031;50.158;8.626;2022-08-19T00:53:22;22.70;99.90
16174;DHT22;14031;50.158;8.626;2022-08-19T00:55:51;22.60;99.90
16174;DHT22;14031;50.158;8.626;2022-08-19T00:58:21;22.60;99.90
16174;DHT22;14031;50.158;8.626;2022-08-19T01:00:48;22.60;99.90
16174;DHT22;14031;50.158;8.626;2022-08-19T01:03:19;22.60;99.90
16174;DHT22;14031;50.158;8.626;2022-08-19T01:05:48;22.60;99.90
16174;DHT22;14031;50.158;8.626;2022-08-19T01:08:18;22.60;99.90
16174;DHT22;14031;50.158;8.626;2022-08-19T01:10:47;22.60;99.90
16174;DHT22;14031;50.158;8.626;2022-08-19T01:13:16;22.60;99.90
16174;DHT22;14031;50.158;8.626;2022-08-19T01:15:45;22.50;99.90
16174;DHT22;14031;50.158;8.626;2022-08-19T01:18:16;22.60;99.90
16174;DHT22;14031;50.158;8.626;2022-08-19T01:20:44;22.50;99.90
16174;DHT22;14031;50.158;8.626;2022-08-19T01:23:14;22.50;99.90
16174;DHT22;14031;50.158;8.626;2022-08-19T01:25:44;22.50;99.90
16174;DHT22;14031;50.158;8.626;2022-08-19T01:28:16;22.50;99.90
16174;DHT22;14031;50.158;8.626;2022-08-19T01:30:44;22.50;99.90
16174;DHT22;14031;50.158;8.626;2022-08-19T01:33:11;22.50;99.90
16174;DHT22;14031;50.158;8.626;2022-08-19T01:35:39;22.50;99.90
16174;DHT22;14031;50.158;8.626;2022-08-19T01:38:09;22.50;99.90
16174;DHT22;14031;50.158;8.626;2022-08-19T01:40:39;22.40;99.90
16174;DHT22;14031;50.158;8.626;2022-08-19T01:43:07;22.40;99.90
16174;DHT22;14031;50.158;8.626;2022-08-19T01:45:35;22.40;99.90
16174;DHT22;14031;50.158;8.626;2022-08-19T01:48:03;22.40;99.90
16174;DHT22;14031;50.158;8.626;2022-08-19T01:50:31;22.40;99.90
16174;DHT22;14031;50.158;8.626;2022-08-19T01:52:59;22.40;99.90
16174;DHT22;14031;50.158;8.626;2022-08-19T01:55:26;22.50;99.90
16174;DHT22;14031;50.158;8.626;2022-08-19T01:57:56;22.50;99.90
16174;DHT22;14031;50.158;8.626;2022-08-19T02:00:28;22.40;99.90
16174;DHT22;14031;50.158;8.626;2022-08-19T02:02:56;22.40;99.90
16174;DHT22;14031;50.158;8.626;2022-08-19T02:05:23;22.40;99.90
16174;DHT22;14031;50.158;8.626;2022-08-19T02:07:50;22.50;99.90
16174;DHT22;14031;50.158;8.626;2022-08-19T02:10:20;22.50;99.90
16174;DHT22;14031;50.158;8.626;2022-08-19T02:12:48;22.50;99.90
16174;DHT22;14031;50.158;8.626;2022-08-19T02:15:17;22.30;99.90
16174;DHT22;14031;50.158;8.626;2022-08-19T02:17:45;22.40;99.90
16174;DHT22;14031;50.158;8.626;2022-08-19T02:20:13;22.40;99.90
16174;DHT22;14031;50.158;8.626;2022-08-19T02:22:41;22.40;99.90
16174;DHT22;14031;50.158;8.626;2022-08-19T02:25:09;22.50;99.90
16174;DHT22;14031;50.158;8.626;2022-08-19T02:27:37;22.50;99.90
16174;DHT22;14031;50.158;8.626;2022-08-19T02:30:05;22.40;99.90
16174;DHT22;14031;50.158;8.626;2022-08-19T02:32:34;22.40;99.90
16174;DHT22;14031;50.158;8.626;2022-08-19T02:35:01;22.40;99.90
16174;DHT22;14031;50.158;8.626;2022-08-19T02:37:28;22.40;99.90
16174;DHT22;14031;50.158;8.626;2022-08-19T02:40:13;22.40;99.90
16174;DHT22;14031;50.158;8.626;2022-08-19T02:42:40;22.40;99.90
16174;DHT22;14031;50.158;8.626;2022-08-19T02:45:10;22.40;99.90
16174;DHT22;14031;50.158;8.626;2022-08-19T02:47:38;22.40;99.90
16174;DHT22;14031;50.158;8.626;2022-08-19T02:50:06;22.40;99.90
16174;DHT22;14031;50.158;8.626;2022-08-19T02:52:34;22.40;99.90
16174;DHT22;14031;50.158;8.626;2022-08-19T02:55:05;22.40;99.90
16174;DHT22;14031;50.158;8.626;2022-08-19T02:57:32;22.40;99.90
16174;DHT22;14031;50.158;8.626;2022-08-19T02:59:59;22.40;99.90
16174;DHT22;14031;50.158;8.626;2022-08-19T03:02:28;22.40;99.90
16174;DHT22;14031;50.158;8.626;2022-08-19T03:04:57;22.30;99.90
16174;DHT22;14031;50.158;8.626;2022-08-19T03:07:24;22.40;99.90
16174;DHT22;14031;50.158;8.626;2022-08-19T03:09:51;22.40;99.90
16174;DHT22;14031;50.158;8.626;2022-08-19T03:12:18;22.30;99.90
16174;DHT22;14031;50.158;8.626;2022-08-19T03:14:45;22.30;99.90
16174;DHT22;14031;50.158;8.626;2022-08-19T03:17:12;22.20;99.90
16174;DHT22;14031;50.158;8.626;2022-08-19T03:19:39;22.20;99.90
16174;DHT22;14031;50.158;8.626;2022-08-19T03:22:07;22.20;99.90
16174;DHT22;14031;50.158;8.626;2022-08-19T03:24:37;22.20;99.90
16174;DHT22;14031;50.158;8.626;2022-08-19T03:27:04;22.20;99.90
16174;DHT22;14031;50.158;8.626;2022-08-19T03:29:31;22.20;99.90
16174;DHT22;14031;50.158;8.626;2022-08-19T03:31:59;22.10;99.90
16174;DHT22;14031;50.158;8.626;2022-08-19T03:34:29;22.10;99.90
16174;DHT22;14031;50.158;8.626;2022-08-19T03:36:57;22.10;99.90
16174;DHT22;14031;50.158;8.626;2022-08-19T03:39:27;22.10;99.90
16174;DHT22;14031;50.158;8.626;2022-08-19T03:41:55;22.10;99.90
16174;DHT22;14031;50.158;8.626;2022-08-19T03:44:25;22.10;99.90
16174;DHT22;14031;50.158;8.626;2022-08-19T03:46:53;22.10;99.90
16174;DHT22;14031;50.158;8.626;2022-08-19T03:49:22;22.00;99.90
16174;DHT22;14031;50.158;8.626;2022-08-19T03:51:49;22.00;99.90
16174;DHT22;14031;50.158;8.626;2022-08-19T03:54:18;22.00;99.90
16174;DHT22;14031;50.158;8.626;2022-08-19T03:56:49;22.00;99.90
16174;DHT22;14031;50.158;8.626;2022-08-19T03:59:21;22.00;99.90
16174;DHT22;14031;50.158;8.626;2022-08-19T04:01:50;21.90;99.90
16174;DHT22;14031;50.158;8.626;2022-08-19T04:04:17;22.00;99.90
16174;DHT22;14031;50.158;8.626;2022-08-19T04:06:44;22.00;99.90
16174;DHT22;14031;50.158;8.626;2022-08-19T04:09:12;21.90;99.90
16174;DHT22;14031;50.158;8.626;2022-08-19T04:11:42;21.90;99.90
16174;DHT22;14031;50.158;8.626;2022-08-19T04:14:16;21.90;99.90
16174;DHT22;14031;50.158;8.626;2022-08-19T04:16:46;22.00;99.90
16174;DHT22;14031;50.158;8.626;2022-08-19T04:19:14;22.00;99.90
16174;DHT22;14031;50.158;8.626;2022-08-19T04:21:44;21.90;99.90
16174;DHT22;14031;50.158;8.626;2022-08-19T04:24:14;21.90;99.90
16174;DHT22;14031;50.158;8.626;2022-08-19T04:26:43;21.90;99.90
16174;DHT22;14031;50.158;8.626;2022-08-19T04:29:16;21.80;99.90
16174;DHT22;14031;50.158;8.626;2022-08-19T04:31:44;21.80;99.90
16174;DHT22;14031;50.158;8.626;2022-08-19T04:34:13;21.90;99.90
16174;DHT22;14031;50.158;8.626;2022-08-19T04:36:43;21.80;99.90
16174;DHT22;14031;50.158;8.626;2022-08-19T04:39:12;21.80;99.90
16174;DHT22;14031;50.158;8.626;2022-08-19T04:41:40;21.80;99.90
16174;DHT22;14031;50.158;8.626;2022-08-19T04:44:26;21.80;99.90
16174;DHT22;14031;50.158;8.626;2022-08-19T04:46:56;21.80;99.90
16174;DHT22;14031;50.158;8.626;2022-08-19T04:49:24;21.80;99.90
16174;DHT22;14031;50.158;8.626;2022-08-19T04:51:53;21.80;99.90
16174;DHT22;14031;50.158;8.626;2022-08-19T04:54:21;21.80;99.90
16174;DHT22;14031;50.158;8.626;2022-08-19T04:56:51;21.90;99.90
16174;DHT22;14031;50.158;8.626;2022-08-19T04:59:19;21.90;99.90
16174;DHT22;14031;50.158;8.626;2022-08-19T05:01:48;21.90;99.90
16174;DHT22;14031;50.158;8.626;2022-08-19T05:04:18;22.00;99.90
16174;DHT22;14031;50.158;8.626;2022-08-19T05:06:46;21.90;99.90
16174;DHT22;14031;50.158;8.626;2022-08-19T05:09:14;21.90;99.90
16174;DHT22;14031;50.158;8.626;2022-08-19T05:11:43;22.00;99.90
16174;DHT22;14031;50.158;8.626;2022-08-19T05:14:11;22.00;99.90
16174;DHT22;14031;50.158;8.626;2022-08-19T05:16:39;22.00;99.90
16174;DHT22;14031;50.158;8.626;2022-08-19T05:19:08;22.00;99.90
16174;DHT22;14031;50.158;8.626;2022-08-19T05:21:52;22.00;99.90
16174;DHT22;14031;50.158;8.626;2022-08-19T05:24:37;22.10;99.90
16174;DHT22;14031;50.158;8.626;2022-08-19T05:27:04;22.10;99.90
16174;DHT22;14031;50.158;8.626;2022-08-19T05:29:32;22.10;99.90
16174;DHT22;14031;50.158;8.626;2022-08-19T05:32:01;22.20;99.90
16174;DHT22;14031;50.158;8.626;2022-08-19T05:34:33;22.20;99.90
16174;DHT22;14031;50.158;8.626;2022-08-19T05:37:02;22.30;99.90
16174;DHT22;14031;50.158;8.626;2022-08-19T05:39:31;22.30;99.90
16174;DHT22;14031;50.158;8.626;2022-08-19T05:42:01;22.30;99.90
16174;DHT22;14031;50.158;8.626;2022-08-19T05:44:34;22.40;99.90
16174;DHT22;14031;50.158;8.626;2022-08-19T05:47:07;22.40;99.90
16174;DHT22;14031;50.158;8.626;2022-08-19T05:49:36;22.40;99.90
16174;DHT22;14031;50.158;8.626;2022-08-19T05:52:04;22.50;99.90
16174;DHT22;14031;50.158;8.626;2022-08-19T05:54:32;22.60;99.90
16174;DHT22;14031;50.158;8.626;2022-08-19T05:57:02;22.60;99.90
16174;DHT22;14031;50.158;8.626;2022-08-19T05:59:29;22.70;99.90
16174;DHT22;14031;50.158;8.626;2022-08-19T06:01:59;22.80;99.90
16174;DHT22;14031;50.158;8.626;2022-08-19T06:04:26;22.80;99.90
16174;DHT22;14031;50.158;8.626;2022-08-19T06:06:54;22.80;99.90
16174;DHT22;14031;50.158;8.626;2022-08-19T06:09:22;22.80;99.90
16174;DHT22;14031;50.158;8.626;2022-08-19T06:11:51;22.90;99.90
16174;DHT22;14031;50.158;8.626;2022-08-19T06:14:22;23.00;99.90
16174;DHT22;14031;50.158;8.626;2022-08-19T06:16:51;23.00;99.90
16174;DHT22;14031;50.158;8.626;2022-08-19T06:19:21;23.00;99.90
16174;DHT22;14031;50.158;8.626;2022-08-19T06:21:51;22.90;99.90
16174;DHT22;14031;50.158;8.626;2022-08-19T06:24:21;22.90;99.90
16174;DHT22;14031;50.158;8.626;2022-08-19T06:26:50;23.00;99.90
16174;DHT22;14031;50.158;8.626;2022-08-19T06:29:20;22.90;99.90
16174;DHT22;14031;50.158;8.626;2022-08-19T06:31:51;23.00;99.90
16174;DHT22;14031;50.158;8.626;2022-08-19T06:34:19;23.00;99.90
16174;DHT22;14031;50.158;8.626;2022-08-19T06:36:48;23.00;99.90
16174;DHT22;14031;50.158;8.626;2022-08-19T06:39:17;23.00;99.90
16174;DHT22;14031;50.158;8.626;2022-08-19T06:41:48;23.00;99.90
16174;DHT22;14031;50.158;8.626;2022-08-19T06:44:16;23.00;99.90
16174;DHT22;14031;50.158;8.626;2022-08-19T06:46:43;23.00;99.90
16174;DHT22;14031;50.158;8.626;2022-08-19T06:49:10;23.10;99.90
16174;DHT22;14031;50.158;8.626;2022-08-19T06:51:40;23.10;99.90
16174;DHT22;14031;50.158;8.626;2022-08-19T06:54:07;23.20;99.90
16174;DHT22;14031;50.158;8.626;2022-08-19T06:56:34;23.30;99.90
16174;DHT22;14031;50.158;8.626;2022-08-19T06:59:04;23.40;99.90
16174;DHT22;14031;50.158;8.626;2022-08-19T07:01:35;23.30;99.90
16174;DHT22;14031;50.158;8.626;2022-08-19T07:04:04;23.40;99.90
16174;DHT22;14031;50.158;8.626;2022-08-19T07:06:31;23.40;99.90
16174;DHT22;14031;50.158;8.626;2022-08-19T07:08:58;23.50;99.90
16174;DHT22;14031;50.158;8.626;2022-08-19T07:11:25;23.50;99.90
16174;DHT22;14031;50.158;8.626;2022-08-19T07:13:52;23.60;99.90
16174;DHT22;14031;50.158;8.626;2022-08-19T07:16:22;23.60;99.90
16174;DHT22;14031;50.158;8.626;2022-08-19T07:18:50;23.70;99.90
16174;DHT22;14031;50.158;8.626;2022-08-19T07:21:18;23.70;99.90
16174;DHT22;14031;50.158;8.626;2022-08-19T07:23:47;23.80;99.90
16174;DHT22;14031;50.158;8.626;2022-08-19T07:26:18;23.90;99.90
16174;DHT22;14031;50.158;8.626;2022-08-19T07:28:45;23.90;99.90
16174;DHT22;14031;50.158;8.626;2022-08-19T07:31:15;24.00;99.90
16174;DHT22;14031;50.158;8.626;2022-08-19T07:33:45;24.00;99.90
16174;DHT22;14031;50.158;8.626;2022-08-19T07:36:15;24.00;99.90
16174;DHT22;14031;50.158;8.626;2022-08-19T07:38:43;24.00;99.90
16174;DHT22;14031;50.158;8.626;2022-08-19T07:41:14;24.00;99.90
16174;DHT22;14031;50.158;8.626;2022-08-19T07:43:41;24.10;99.90
16174;DHT22;14031;50.158;8.626;2022-08-19T07:46:10;24.00;99.90
16174;DHT22;14031;50.158;8.626;2022-08-19T07:48:39;24.10;99.90
16174;DHT22;14031;50.158;8.626;2022-08-19T07:51:10;24.10;99.90
16174;DHT22;14031;50.158;8.626;2022-08-19T07:53:37;24.10;99.90
16174;DHT22;14031;50.158;8.626;2022-08-19T07:56:05;24.20;99.90
16174;DHT22;14031;50.158;8.626;2022-08-19T07:58:34;24.30;99.90
16174;DHT22;14031;50.158;8.626;2022-08-19T08:01:02;24.30;99.90
16174;DHT22;14031;50.158;8.626;2022-08-19T08:03:30;24.40;99.90
16174;DHT22;14031;50.158;8.626;2022-08-19T08:06:16;24.40;99.90
16174;DHT22;14031;50.158;8.626;2022-08-19T08:09:00;24.40;99.90
16174;DHT22;14031;50.158;8.626;2022-08-19T08:11:49;24.50;99.90
16174;DHT22;14031;50.158;8.626;2022-08-19T08:14:19;24.60;99.90
16174;DHT22;14031;50.158;8.626;2022-08-19T08:16:47;24.70;99.90
16174;DHT22;14031;50.158;8.626;2022-08-19T08:19:16;24.70;99.90
16174;DHT22;14031;50.158;8.626;2022-08-19T08:21:46;24.80;99.90
16174;DHT22;14031;50.158;8.626;2022-08-19T08:24:13;24.80;99.90
16174;DHT22;14031;50.158;8.626;2022-08-19T08:26:40;24.90;99.90
16174;DHT22;14031;50.158;8.626;2022-08-19T08:29:09;24.90;99.90
16174;DHT22;14031;50.158;8.626;2022-08-19T08:31:37;25.00;99.90
16174;DHT22;14031;50.158;8.626;2022-08-19T08:34:04;25.10;99.90
16174;DHT22;14031;50.158;8.626;2022-08-19T08:36:31;25.20;99.90
16174;DHT22;14031;50.158;8.626;2022-08-19T08:39:00;25.20;99.90
16174;DHT22;14031;50.158;8.626;2022-08-19T08:41:35;25.30;99.90
16174;DHT22;14031;50.158;8.626;2022-08-19T08:44:04;25.30;99.90
16174;DHT22;14031;50.158;8.626;2022-08-19T08:46:36;25.40;99.90
16174;DHT22;14031;50.158;8.626;2022-08-19T08:49:11;25.50;99.90
16174;DHT22;14031;50.158;8.626;2022-08-19T08:51:47;25.60;99.90
16174;DHT22;14031;50.158;8.626;2022-08-19T08:54:20;25.80;99.90
16174;DHT22;14031;50.158;8.626;2022-08-19T08:56:49;25.80;99.90
16174;DHT22;14031;50.158;8.626;2022-08-19T08:59:21;25.80;99.90
16174;DHT22;14031;50.158;8.626;2022-08-19T09:01:48;25.90;99.90
16174;DHT22;14031;50.158;8.626;2022-08-19T09:04:15;26.00;99.90
16174;DHT22;14031;50.158;8.626;2022-08-19T09:06:51;26.00;99.90
16174;DHT22;14031;50.158;8.626;2022-08-19T09:09:29;26.10;99.90
16174;DHT22;14031;50.158;8.626;2022-08-19T09:12:04;26.20;99.90
16174;DHT22;14031;50.158;8.626;2022-08-19T09:14:39;26.20;99.90
16174;DHT22;14031;50.158;8.626;2022-08-19T09:17:11;26.30;99.90
16174;DHT22;14031;50.158;8.626;2022-08-19T09:19:52;26.40;99.90
16174;DHT22;14031;50.158;8.626;2022-08-19T09:22:19;26.50;99.90
16174;DHT22;14031;50.158;8.626;2022-08-19T09:24:50;26.60;99.90
16174;DHT22;14031;50.158;8.626;2022-08-19T09:27:20;26.60;99.90
16174;DHT22;14031;50.158;8.626;2022-08-19T09:29:49;26.50;99.90
16174;DHT22;14031;50.158;8.626;2022-08-19T09:32:16;26.40;99.90
16174;DHT22;14031;50.158;8.626;2022-08-19T09:34:43;26.40;99.90
16174;DHT22;14031;50.158;8.626;2022-08-19T09:37:10;26.40;99.90
16174;DHT22;14031;50.158;8.626;2022-08-19T09:39:40;26.30;99.90
16174;DHT22;14031;50.158;8.626;2022-08-19T09:42:09;26.30;99.90
16174;DHT22;14031;50.158;8.626;2022-08-19T09:44:39;26.30;99.90
16174;DHT22;14031;50.158;8.626;2022-08-19T09:47:06;26.40;99.90
16174;DHT22;14031;50.158;8.626;2022-08-19T09:49:33;26.40;99.90
16174;DHT22;14031;50.158;8.626;2022-08-19T09:52:00;26.50;99.90
16174;DHT22;14031;50.158;8.626;2022-08-19T09:54:27;26.40;99.90
16174;DHT22;14031;50.158;8.626;2022-08-19T09:56:55;26.50;99.90
16174;DHT22;14031;50.158;8.626;2022-08-19T09:59:23;26.70;99.90
16174;DHT22;14031;50.158;8.626;2022-08-19T10:01:51;26.90;99.90
16174;DHT22;14031;50.158;8.626;2022-08-19T10:04:18;27.00;99.90
16174;DHT22;14031;50.158;8.626;2022-08-19T10:06:47;27.00;99.90
16174;DHT22;14031;50.158;8.626;2022-08-19T10:09:16;27.00;99.90
16174;DHT22;14031;50.158;8.626;2022-08-19T10:11:45;26.90;99.90
16174;DHT22;14031;50.158;8.626;2022-08-19T10:14:13;26.90;99.90
16174;DHT22;14031;50.158;8.626;2022-08-19T10:16:43;27.00;99.90
16174;DHT22;14031;50.158;8.626;2022-08-19T10:19:10;27.20;99.90
16174;DHT22;14031;50.158;8.626;2022-08-19T10:21:37;27.30;99.90
16174;DHT22;14031;50.158;8.626;2022-08-19T10:24:06;27.40;99.90
16174;DHT22;14031;50.158;8.626;2022-08-19T10:26:34;27.40;99.90
16174;DHT22;14031;50.158;8.626;2022-08-19T10:29:03;27.40;99.90
16174;DHT22;14031;50.158;8.626;2022-08-19T10:31:32;27.40;99.90
16174;DHT22;14031;50.158;8.626;2022-08-19T10:34:01;27.50;99.90
16174;DHT22;14031;50.158;8.626;2022-08-19T10:36:30;27.50;99.90
16174;DHT22;14031;50.158;8.626;2022-08-19T10:38:59;27.50;99.90
16174;DHT22;14031;50.158;8.626;2022-08-19T10:41:28;27.50;99.90
16174;DHT22;14031;50.158;8.626;2022-08-19T10:43:57;27.50;99.90
16174;DHT22;14031;50.158;8.626;2022-08-19T10:46:26;27.60;99.90
16174;DHT22;14031;50.158;8.626;2022-08-19T10:48:54;27.70;99.90
16174;DHT22;14031;50.158;8.626;2022-08-19T10:51:23;27.90;99.90
16174;DHT22;14031;50.158;8.626;2022-08-19T10:54:07;28.00;99.90
16174;DHT22;14031;50.158;8.626;2022-08-19T10:56:35;28.20;99.90
16174;DHT22;14031;50.158;8.626;2022-08-19T10:59:22;28.30;99.90
16174;DHT22;14031;50.158;8.626;2022-08-19T11:01:50;28.40;99.90
16174;DHT22;14031;50.158;8.626;2022-08-19T11:04:18;28.30;99.90
16174;DHT22;14031;50.158;8.626;2022-08-19T11:06:53;28.40;99.90
16174;DHT22;14031;50.158;8.626;2022-08-19T11:09:22;28.40;99.90
16174;DHT22;14031;50.158;8.626;2022-08-19T11:11:51;28.40;99.90
16174;DHT22;14031;50.158;8.626;2022-08-19T11:14:20;28.40;99.90
16174;DHT22;14031;50.158;8.626;2022-08-19T11:16:48;28.50;99.90
16174;DHT22;14031;50.158;8.626;2022-08-19T11:19:16;28.60;99.90
16174;DHT22;14031;50.158;8.626;2022-08-19T11:21:46;28.70;99.90
16174;DHT22;14031;50.158;8.626;2022-08-19T11:24:16;28.80;99.90
16174;DHT22;14031;50.158;8.626;2022-08-19T11:26:46;28.80;99.90
16174;DHT22;14031;50.158;8.626;2022-08-19T11:29:16;28.70;99.90
16174;DHT22;14031;50.158;8.626;2022-08-19T11:31:45;28.70;99.90
16174;DHT22;14031;50.158;8.626;2022-08-19T11:34:14;28.60;99.90
16174;DHT22;14031;50.158;8.626;2022-08-19T11:36:43;28.60;99.90
16174;DHT22;14031;50.158;8.626;2022-08-19T11:39:15;28.70;99.90
16174;DHT22;14031;50.158;8.626;2022-08-19T11:41:42;29.00;99.90
16174;DHT22;14031;50.158;8.626;2022-08-19T11:44:09;29.20;99.90
16174;DHT22;14031;50.158;8.626;2022-08-19T11:46:37;29.20;99.90
16174;DHT22;14031;50.158;8.626;2022-08-19T11:49:05;29.20;99.90
16174;DHT22;14031;50.158;8.626;2022-08-19T11:51:33;29.10;99.90
16174;DHT22;14031;50.158;8.626;2022-08-19T11:54:00;29.00;99.90
16174;DHT22;14031;50.158;8.626;2022-08-19T11:56:29;29.10;99.90
16174;DHT22;14031;50.158;8.626;2022-08-19T11:58:56;29.30;99.90
16174;DHT22;14031;50.158;8.626;2022-08-19T12:01:24;29.50;99.90
16174;DHT22;14031;50.158;8.626;2022-08-19T12:03:53;29.80;99.90
16174;DHT22;14031;50.158;8.626;2022-08-19T12:06:22;30.00;99.90
16174;DHT22;14031;50.158;8.626;2022-08-19T12:08:52;29.90;99.90
16174;DHT22;14031;50.158;8.626;2022-08-19T12:11:20;29.90;99.90
16174;DHT22;14031;50.158;8.626;2022-08-19T12:13:49;29.90;99.90
16174;DHT22;14031;50.158;8.626;2022-08-19T12:16:18;29.90;99.90
16174;DHT22;14031;50.158;8.626;2022-08-19T12:18:46;30.10;99.90
16174;DHT22;14031;50.158;8.626;2022-08-19T12:21:14;30.20;99.90
16174;DHT22;14031;50.158;8.626;2022-08-19T12:23:41;30.10;99.90
16174;DHT22;14031;50.158;8.626;2022-08-19T12:26:11;30.20;99.90
16174;DHT22;14031;50.158;8.626;2022-08-19T12:28:38;30.20;99.90
16174;DHT22;14031;50.158;8.626;2022-08-19T12:31:11;30.30;99.90
16174;DHT22;14031;50.158;8.626;2022-08-19T12:33:38;30.10;99.90
16174;DHT22;14031;50.158;8.626;2022-08-19T12:36:09;29.80;99.90
16174;DHT22;14031;50.158;8.626;2022-08-19T12:38:37;29.60;99.90
16174;DHT22;14031;50.158;8.626;2022-08-19T12:41:06;29.60;99.90
16174;DHT22;14031;50.158;8.626;2022-08-19T12:43:33;29.80;99.90
16174;DHT22;14031;50.158;8.626;2022-08-19T12:46:01;30.20;99.90
16174;DHT22;14031;50.158;8.626;2022-08-19T12:48:31;30.60;99.90
16174;DHT22;14031;50.158;8.626;2022-08-19T12:50:58;30.90;99.90
16174;DHT22;14031;50.158;8.626;2022-08-19T12:53:25;30.90;99.90
16174;DHT22;14031;50.158;8.626;2022-08-19T12:55:55;30.70;99.90
16174;DHT22;14031;50.158;8.626;2022-08-19T12:58:22;30.40;99.90
16174;DHT22;14031;50.158;8.626;2022-08-19T13:00:49;30.10;99.90
16174;DHT22;14031;50.158;8.626;2022-08-19T13:03:16;29.90;99.90
16174;DHT22;14031;50.158;8.626;2022-08-19T13:05:45;29.70;99.80
16174;DHT22;14031;50.158;8.626;2022-08-19T13:08:12;29.60;99.90
16174;DHT22;14031;50.158;8.626;2022-08-19T13:10:39;29.50;99.90
16174;DHT22;14031;50.158;8.626;2022-08-19T13:13:08;29.40;99.70
16174;DHT22;14031;50.158;8.626;2022-08-19T13:15:37;29.40;99.40
16174;DHT22;14031;50.158;8.626;2022-08-19T13:18:06;29.40;99.70
16174;DHT22;14031;50.158;8.626;2022-08-19T13:20:35;29.50;99.90
16174;DHT22;14031;50.158;8.626;2022-08-19T13:23:04;29.70;99.40
16174;DHT22;14031;50.158;8.626;2022-08-19T13:25:34;30.20;98.90
16174;DHT22;14031;50.158;8.626;2022-08-19T13:28:04;30.50;98.60
16174;DHT22;14031;50.158;8.626;2022-08-19T13:30:32;31.00;98.10
16174;DHT22;14031;50.158;8.626;2022-08-19T13:33:17;31.50;96.10
16174;DHT22;14031;50.158;8.626;2022-08-19T13:35:47;32.00;96.00
16174;DHT22;14031;50.158;8.626;2022-08-19T13:38:18;32.50;94.80
16174;DHT22;14031;50.158;8.626;2022-08-19T13:40:46;32.70;95.30
16174;DHT22;14031;50.158;8.626;2022-08-19T13:43:15;32.70;94.10
16174;DHT22;14031;50.158;8.626;2022-08-19T13:45:43;32.60;93.80
16174;DHT22;14031;50.158;8.626;2022-08-19T13:48:10;32.40;93.30
16174;DHT22;14031;50.158;8.626;2022-08-19T13:50:44;32.30;93.70
16174;DHT22;14031;50.158;8.626;2022-08-19T13:53:12;32.50;93.80
16174;DHT22;14031;50.158;8.626;2022-08-19T13:55:42;32.40;93.20
16174;DHT22;14031;50.158;8.626;2022-08-19T13:58:10;32.20;92.30
16174;DHT22;14031;50.158;8.626;2022-08-19T14:00:44;31.80;92.90
16174;DHT22;14031;50.158;8.626;2022-08-19T14:03:11;31.40;93.70
16174;DHT22;14031;50.158;8.626;2022-08-19T14:05:39;31.10;93.90
16174;DHT22;14031;50.158;8.626;2022-08-19T14:08:06;31.10;93.70
16174;DHT22;14031;50.158;8.626;2022-08-19T14:10:33;31.30;93.50
16174;DHT22;14031;50.158;8.626;2022-08-19T14:13:03;31.60;93.70
16174;DHT22;14031;50.158;8.626;2022-08-19T14:15:31;32.40;92.70
16174;DHT22;14031;50.158;8.626;2022-08-19T14:17:58;33.00;91.90
16174;DHT22;14031;50.158;8.626;2022-08-19T14:20:25;33.80;91.80
16174;DHT22;14031;50.158;8.626;2022-08-19T14:22:53;34.10;90.90
16174;DHT22;14031;50.158;8.626;2022-08-19T14:25:23;33.90;90.60
16174;DHT22;14031;50.158;8.626;2022-08-19T14:27:50;33.30;90.30
16174;DHT22;14031;50.158;8.626;2022-08-19T14:30:23;32.80;91.80
16174;DHT22;14031;50.158;8.626;2022-08-19T14:32:50;32.20;91.70
16174;DHT22;14031;50.158;8.626;2022-08-19T14:35:21;31.70;92.10
16174;DHT22;14031;50.158;8.626;2022-08-19T14:37:52;31.40;92.80
16174;DHT22;14031;50.158;8.626;2022-08-19T14:40:22;31.20;92.90
16174;DHT22;14031;50.158;8.626;2022-08-19T14:42:51;31.10;92.50
16174;DHT22;14031;50.158;8.626;2022-08-19T14:45:22;31.00;92.50
16174;DHT22;14031;50.158;8.626;2022-08-19T14:47:51;31.00;92.40
16174;DHT22;14031;50.158;8.626;2022-08-19T14:50:21;31.10;92.40
16174;DHT22;14031;50.158;8.626;2022-08-19T14:52:57;31.20;92.30
16174;DHT22;14031;50.158;8.626;2022-08-19T14:55:26;31.60;91.90
16174;DHT22;14031;50.158;8.626;2022-08-19T14:57:53;32.30;90.60
16174;DHT22;14031;50.158;8.626;2022-08-19T15:00:22;32.80;91.20
16174;DHT22;14031;50.158;8.626;2022-08-19T15:02:49;33.30;88.90
16174;DHT22;14031;50.158;8.626;2022-08-19T15:05:19;33.60;87.60
16174;DHT22;14031;50.158;8.626;2022-08-19T15:07:49;33.70;84.70
16174;DHT22;14031;50.158;8.626;2022-08-19T15:10:16;33.90;84.90
16174;DHT22;14031;50.158;8.626;2022-08-19T15:12:43;34.30;83.00
16174;DHT22;14031;50.158;8.626;2022-08-19T15:15:14;34.60;81.80
16174;DHT22;14031;50.158;8.626;2022-08-19T15:17:44;34.60;82.60
16174;DHT22;14031;50.158;8.626;2022-08-19T15:20:14;34.40;81.90
16174;DHT22;14031;50.158;8.626;2022-08-19T15:22:41;34.10;81.80
16174;DHT22;14031;50.158;8.626;2022-08-19T15:25:10;33.80;82.40
16174;DHT22;14031;50.158;8.626;2022-08-19T15:27:43;33.70;82.30
16174;DHT22;14031;50.158;8.626;2022-08-19T15:30:19;33.50;81.90
16174;DHT22;14031;50.158;8.626;2022-08-19T15:32:53;33.20;82.80
16174;DHT22;14031;50.158;8.626;2022-08-19T15:35:23;33.00;84.50
16174;DHT22;14031;50.158;8.626;2022-08-19T15:37:54;32.80;84.20
16174;DHT22;14031;50.158;8.626;2022-08-19T15:40:22;33.00;84.30
16174;DHT22;14031;50.158;8.626;2022-08-19T15:42:53;33.40;83.70